createdAt,value
2022-11-20T00:01:32.586Z,18.83
2022-11-20T00:04:00.906Z,18.83
2022-11-20T00:06:29.499Z,18.92
2022-11-20T00:08:59.324Z,19.92
2022-11-20T00:11:28.696Z,18.63
2022-11-20T00:13:59.073Z,19.90
2022-11-20T00:16:28.074Z,18.92
2022-11-20T00:18:55.669Z,19.48
2022-11-20T00:21:25.826Z,18.20
2022-11-20T00:23:55.250Z,19.13
2022-11-20T00:26:24.458Z,19.33
2022-11-20T00:29:02.258Z,18.85
2022-11-20T00:31:31.167Z,19.10
2022-11-20T00:33:58.629Z,18.33
2022-11-20T00:36:27.983Z,19.20
2022-11-20T00:38:57.309Z,19.23
2022-11-20T00:41:26.209Z,20.73
2022-11-20T00:43:54.864Z,20.77
2022-11-20T00:46:24.715Z,19.17
2022-11-20T00:48:52.007Z,20.50
2022-11-20T00:51:21.815Z,19.17
2022-11-20T00:53:49.360Z,19.98
2022-11-20T00:56:19.173Z,19.95
2022-11-20T00:58:48.019Z,20.48
2022-11-20T01:01:21.179Z,20.05
2022-11-20T01:03:50.832Z,19.80
2022-11-20T01:06:23.348Z,19.55
2022-11-20T01:08:52.154Z,18.58
2022-11-20T01:11:24.129Z,20.38
2022-11-20T01:16:29.065Z,22.88
2022-11-20T01:18:59.259Z,21.55
2022-11-20T01:21:38.262Z,19.98
2022-11-20T01:24:08.940Z,21.13
2022-11-20T01:26:38.516Z,22.33
2022-11-20T01:29:07.646Z,21.20
2022-11-20T01:31:37.889Z,20.15
2022-11-20T01:34:11.737Z,21.52
2022-11-20T01:36:39.718Z,21.33
2022-11-20T01:39:21.220Z,20.30
2022-11-20T01:42:10.050Z,20.73
2022-11-20T01:44:49.894Z,20.77
2022-11-20T01:47:46.018Z,21.02
2022-11-20T01:50:15.449Z,22.13
2022-11-20T01:52:50.572Z,20.95
2022-11-20T01:55:28.021Z,21.83
2022-11-20T01:57:56.779Z,20.23
2022-11-20T02:00:24.353Z,20.48
2022-11-20T02:03:27.383Z,20.92
2022-11-20T02:06:07.479Z,21.08
2022-11-20T02:08:36.232Z,21.05
2022-11-20T02:11:03.629Z,19.70
2022-11-20T02:13:46.040Z,22.33
2022-11-20T02:16:20.844Z,21.00
2022-11-20T02:18:48.691Z,20.40
2022-11-20T02:21:31.166Z,22.40
2022-11-20T02:23:58.828Z,20.10
2022-11-20T02:26:28.802Z,20.67
2022-11-20T02:28:56.302Z,20.65
2022-11-20T02:31:23.490Z,21.10
2022-11-20T02:33:57.015Z,21.05
2022-11-20T02:36:27.273Z,20.58
2022-11-20T02:38:55.103Z,20.13
2022-11-20T02:41:23.200Z,20.60
2022-11-20T02:43:50.452Z,20.90
2022-11-20T02:46:17.688Z,21.10
2022-11-20T02:48:44.946Z,20.73
2022-11-20T02:51:12.140Z,20.55
2022-11-20T02:53:39.420Z,21.05
2022-11-20T02:56:07.246Z,20.52
2022-11-20T02:58:34.528Z,20.35
2022-11-20T03:01:01.893Z,20.50
2022-11-20T03:03:29.209Z,20.95
2022-11-20T03:05:56.488Z,22.40
2022-11-20T03:08:23.720Z,21.10
2022-11-20T03:10:51.210Z,21.85
2022-11-20T03:13:18.644Z,21.38
2022-11-20T03:15:45.955Z,21.45
2022-11-20T03:18:14.668Z,22.80
2022-11-20T03:20:41.955Z,21.38
2022-11-20T03:23:09.196Z,21.42
2022-11-20T03:25:36.655Z,22.42
2022-11-20T03:28:04.046Z,20.88
2022-11-20T03:30:31.396Z,20.40
2022-11-20T03:32:58.603Z,21.05
2022-11-20T03:35:26.864Z,21.13
2022-11-20T03:37:54.248Z,21.80
2022-11-20T03:40:21.500Z,21.02
2022-11-20T03:42:48.925Z,20.48
2022-11-20T03:45:19.887Z,21.80
2022-11-20T03:47:47.768Z,21.40
2022-11-20T03:50:15.828Z,22.58
2022-11-20T03:52:43.482Z,21.92
2022-11-20T03:55:11.020Z,21.30
2022-11-20T03:57:38.263Z,21.00
2022-11-20T04:00:06.701Z,22.10
2022-11-20T04:02:33.956Z,21.63
2022-11-20T04:05:01.253Z,20.90
2022-11-20T04:07:28.691Z,20.65
2022-11-20T04:09:55.931Z,20.15
2022-11-20T04:12:23.167Z,20.17
2022-11-20T04:14:50.641Z,21.58
2022-11-20T04:17:17.825Z,21.60
2022-11-20T04:19:45.073Z,20.13
2022-11-20T04:22:13.275Z,20.88
2022-11-20T04:24:40.617Z,19.73
2022-11-20T04:27:08.099Z,19.35
2022-11-20T04:29:35.289Z,19.75
2022-11-20T04:32:02.596Z,19.65
2022-11-20T04:34:29.925Z,19.83
2022-11-20T04:36:58.281Z,20.50
2022-11-20T04:39:25.613Z,22.33
2022-11-20T04:42:12.944Z,21.95
2022-11-20T04:44:40.263Z,19.60
2022-11-20T04:47:07.525Z,18.95
2022-11-20T04:49:35.039Z,19.42
2022-11-20T04:52:02.528Z,18.58
2022-11-20T04:54:29.815Z,18.55
2022-11-20T04:56:57.140Z,17.67
2022-11-20T04:59:24.507Z,17.00
2022-11-20T05:01:52.097Z,18.45
2022-11-20T05:04:21.063Z,17.80
2022-11-20T05:06:48.328Z,18.95
2022-11-20T05:09:15.563Z,17.73
2022-11-20T05:11:42.893Z,18.13
2022-11-20T05:14:10.197Z,16.77
2022-11-20T05:16:37.968Z,17.30
2022-11-20T05:19:05.350Z,17.10
2022-11-20T05:21:33.476Z,17.92
2022-11-20T05:24:01.054Z,17.80
2022-11-20T05:26:28.349Z,17.70
2022-11-20T05:28:55.588Z,17.33
2022-11-20T05:31:27.561Z,16.27
2022-11-20T05:33:56.808Z,18.23
2022-11-20T05:36:24.815Z,17.23
2022-11-20T05:38:55.497Z,17.35
2022-11-20T05:41:26.275Z,17.90
2022-11-20T05:43:53.559Z,17.52
2022-11-20T05:46:27.739Z,17.20
2022-11-20T05:48:57.333Z,16.38
2022-11-20T05:51:24.961Z,16.05
2022-11-20T05:53:52.333Z,16.85
2022-11-20T05:56:21.627Z,18.25
2022-11-20T05:58:49.620Z,17.73
2022-11-20T06:01:36.959Z,18.42
2022-11-20T06:04:04.356Z,16.52
2022-11-20T06:06:31.709Z,15.60
2022-11-20T06:09:00.180Z,17.38
2022-11-20T06:11:27.537Z,16.75
2022-11-20T06:13:54.805Z,15.75
2022-11-20T06:16:22.902Z,14.48
2022-11-20T06:18:50.558Z,15.18
2022-11-20T06:21:22.491Z,15.55
2022-11-20T06:26:23.983Z,13.73
2022-11-20T06:28:52.560Z,15.07
2022-11-20T06:31:22.273Z,14.80
2022-11-20T06:33:50.025Z,14.95
2022-11-20T06:36:19.605Z,14.93
2022-11-20T06:38:47.679Z,14.15
2022-11-20T06:41:20.973Z,14.43
2022-11-20T06:43:49.648Z,13.82
2022-11-20T06:46:21.246Z,14.98
2022-11-20T06:48:49.839Z,14.10
2022-11-20T06:51:17.673Z,14.63
2022-11-20T06:53:45.106Z,14.55
2022-11-20T06:56:12.402Z,15.35
2022-11-20T06:58:39.768Z,15.02
2022-11-20T07:01:12.354Z,15.85
2022-11-20T07:03:40.501Z,14.38
2022-11-20T07:06:07.879Z,14.70
2022-11-20T07:08:35.994Z,15.48
2022-11-20T07:11:06.326Z,16.05
2022-11-20T07:13:34.187Z,21.30
2022-11-20T07:16:03.469Z,17.10
2022-11-20T07:18:31.131Z,16.90
2022-11-20T07:21:05.139Z,15.60
2022-11-20T07:23:32.421Z,14.30
2022-11-20T07:26:03.569Z,13.15
2022-11-20T07:28:31.120Z,14.25
2022-11-20T07:30:58.386Z,13.90
2022-11-20T07:33:25.935Z,17.98
2022-11-20T07:35:53.111Z,13.98
2022-11-20T07:38:20.592Z,14.30
2022-11-20T07:40:47.911Z,13.77
2022-11-20T07:43:15.215Z,13.18
2022-11-20T07:45:43.195Z,13.23
2022-11-20T07:48:10.517Z,13.43
2022-11-20T07:50:37.854Z,13.25
2022-11-20T07:53:08.839Z,14.48
2022-11-20T07:55:36.072Z,13.90
2022-11-20T07:58:03.434Z,13.95
2022-11-20T08:00:30.779Z,12.90
2022-11-20T08:02:58.039Z,12.70
2022-11-20T08:05:25.351Z,13.05
2022-11-20T08:07:52.890Z,12.50
2022-11-20T08:10:20.219Z,12.68
2022-11-20T08:13:07.404Z,12.65
2022-11-20T08:15:35.543Z,13.80
2022-11-20T08:21:02.419Z,12.35
2022-11-20T08:23:29.725Z,14.27
2022-11-20T08:25:56.978Z,13.38
2022-11-20T08:28:24.296Z,13.60
2022-11-20T08:30:51.716Z,13.98
2022-11-20T08:33:19.526Z,13.80
2022-11-20T08:35:46.965Z,14.50
2022-11-20T08:38:14.418Z,14.43
2022-11-20T08:40:41.737Z,13.27
2022-11-20T08:43:08.959Z,15.00
2022-11-20T08:45:36.332Z,15.55
2022-11-20T08:48:04.713Z,14.55
2022-11-20T08:50:33.957Z,14.70
2022-11-20T08:53:07.758Z,14.88
2022-11-20T08:55:36.858Z,13.98
2022-11-20T08:58:08.265Z,14.50
2022-11-20T09:00:35.852Z,14.00
2022-11-20T09:03:03.384Z,13.93
2022-11-20T09:05:30.834Z,14.77
2022-11-20T09:07:59.395Z,14.70
2022-11-20T09:10:27.789Z,14.40
2022-11-20T09:12:59.016Z,13.30
2022-11-20T09:15:26.989Z,14.03
2022-11-20T09:17:56.189Z,14.40
2022-11-20T09:20:23.940Z,14.50
2022-11-20T09:22:51.371Z,15.05
2022-11-20T09:25:19.292Z,14.65
2022-11-20T09:27:47.216Z,14.07
2022-11-20T09:30:16.418Z,14.35
2022-11-20T09:32:44.378Z,13.85
2022-11-20T09:35:12.183Z,12.63
2022-11-20T09:37:39.528Z,15.98
2022-11-20T09:40:07.989Z,16.45
2022-11-20T09:42:35.307Z,16.20
2022-11-20T09:45:43.932Z,15.35
2022-11-20T09:48:13.921Z,14.02
2022-11-20T09:51:17.643Z,15.25
2022-11-20T09:54:01.607Z,14.38
2022-11-20T09:56:29.974Z,14.90
2022-11-20T09:59:09.803Z,14.43
2022-11-20T10:01:41.899Z,14.15
2022-11-20T10:04:19.066Z,14.48
2022-11-20T10:07:31.279Z,13.98
2022-11-20T10:09:59.276Z,13.95
2022-11-20T10:12:29.565Z,13.95
2022-11-20T10:14:59.870Z,15.00
2022-11-20T10:18:15.231Z,15.07
2022-11-20T10:20:50.365Z,15.45
2022-11-20T10:23:26.471Z,15.55
2022-11-20T10:26:22.860Z,15.25
2022-11-20T10:29:09.083Z,16.23
2022-11-20T10:31:41.383Z,15.73
2022-11-20T10:34:54.632Z,16.40
2022-11-20T10:37:27.634Z,15.82
2022-11-20T10:40:01.616Z,16.52
2022-11-20T10:42:57.948Z,16.02
2022-11-20T10:45:25.408Z,15.70
2022-11-20T10:48:01.389Z,18.35
2022-11-20T10:50:32.020Z,21.08
2022-11-20T10:53:29.990Z,18.10
2022-11-20T10:56:08.566Z,16.35
2022-11-20T10:58:56.424Z,16.73
2022-11-20T11:01:24.710Z,17.00
2022-11-20T11:03:58.274Z,17.02
2022-11-20T11:06:36.203Z,17.55
2022-11-20T11:09:16.747Z,17.27
2022-11-20T11:11:45.536Z,13.95
2022-11-20T11:14:16.023Z,14.32
2022-11-20T11:16:54.904Z,14.60
2022-11-20T11:19:22.676Z,16.88
2022-11-20T11:21:56.256Z,18.02
2022-11-20T11:24:46.520Z,18.85
2022-11-20T11:27:18.946Z,15.15
2022-11-20T11:29:47.756Z,14.52
2022-11-20T11:32:16.624Z,13.25
2022-11-20T11:34:43.919Z,11.57
2022-11-20T11:37:36.037Z,12.57
2022-11-20T11:43:00.799Z,10.98
2022-11-20T11:45:28.638Z,10.48
2022-11-20T11:47:59.359Z,10.10
2022-11-20T11:50:28.915Z,9.30
2022-11-20T11:53:02.243Z,9.50
2022-11-20T11:55:46.886Z,10.40
2022-11-20T11:58:43.954Z,10.02
2022-11-20T12:01:33.955Z,9.52
2022-11-20T12:04:42.889Z,8.43
2022-11-20T12:10:18.557Z,11.10
2022-11-20T12:13:08.497Z,10.60
2022-11-20T12:15:36.639Z,10.52
2022-11-20T12:18:14.818Z,11.25
2022-11-20T12:21:11.793Z,10.50
2022-11-20T12:23:53.865Z,10.68
2022-11-20T12:26:41.710Z,10.77
2022-11-20T12:29:18.286Z,10.63
2022-11-20T12:32:04.951Z,10.55
2022-11-20T12:35:01.616Z,10.43
2022-11-20T12:37:37.813Z,9.30
2022-11-20T12:40:29.771Z,9.77
2022-11-20T12:43:31.172Z,10.30
2022-11-20T12:46:17.372Z,9.32
2022-11-20T12:49:15.067Z,10.23
2022-11-20T12:52:22.592Z,8.80
2022-11-20T12:55:04.437Z,9.10
2022-11-20T12:57:51.157Z,8.32
2022-11-20T13:00:22.265Z,8.38
2022-11-20T13:03:18.195Z,9.20
2022-11-20T13:06:09.615Z,9.68
2022-11-20T13:08:41.438Z,10.10
2022-11-20T13:11:30.076Z,10.05
2022-11-20T13:14:43.098Z,10.60
2022-11-20T13:17:25.935Z,10.52
2022-11-20T13:19:59.842Z,9.90
2022-11-20T13:22:45.717Z,10.32
2022-11-20T13:25:51.136Z,11.13
2022-11-20T13:28:18.896Z,11.20
2022-11-20T13:30:54.253Z,10.60
2022-11-20T13:33:31.848Z,10.68
2022-11-20T13:36:07.977Z,13.52
2022-11-20T13:38:52.099Z,11.73
2022-11-20T13:41:29.487Z,13.07
2022-11-20T13:44:21.243Z,12.38
2022-11-20T13:46:48.730Z,12.05
2022-11-20T13:49:45.143Z,11.63
2022-11-20T13:52:27.974Z,11.57
2022-11-20T13:55:33.886Z,12.57
2022-11-20T13:58:33.609Z,12.30
2022-11-20T14:01:24.143Z,11.90
2022-11-20T14:04:08.326Z,12.07
2022-11-20T14:06:45.149Z,10.50
2022-11-20T14:09:33.264Z,11.88
2022-11-20T14:12:01.101Z,10.98
2022-11-20T14:14:30.567Z,10.40
2022-11-20T14:17:19.953Z,10.80
2022-11-20T14:19:49.556Z,11.60
2022-11-20T14:22:24.579Z,13.40
2022-11-20T14:25:13.182Z,14.45
2022-11-20T14:27:43.147Z,13.05
2022-11-20T14:30:25.667Z,13.57
2022-11-20T14:32:56.540Z,13.35
2022-11-20T14:37:53.253Z,11.45
2022-11-20T14:40:30.846Z,10.35
2022-11-20T14:42:59.462Z,10.77
2022-11-20T14:45:27.619Z,10.73
2022-11-20T14:47:57.677Z,10.85
2022-11-20T14:50:30.409Z,11.88
2022-11-20T14:52:59.986Z,11.63
2022-11-20T14:55:37.079Z,13.98
2022-11-20T14:58:21.631Z,13.27
2022-11-20T15:01:04.480Z,16.02
2022-11-20T15:03:40.884Z,14.70
2022-11-20T15:06:12.835Z,12.90
2022-11-20T15:11:32.864Z,13.15
2022-11-20T15:14:05.649Z,13.00
2022-11-20T15:16:34.349Z,11.63
2022-11-20T15:19:17.971Z,11.45
2022-11-20T15:21:45.320Z,11.38
2022-11-20T15:24:12.825Z,11.65
2022-11-20T15:26:42.862Z,11.40
2022-11-20T15:29:15.753Z,11.95
2022-11-20T15:31:44.420Z,11.32
2022-11-20T15:34:20.773Z,11.85
2022-11-20T15:36:48.175Z,12.35
2022-11-20T15:39:15.558Z,11.30
2022-11-20T15:41:43.108Z,10.57
2022-11-20T15:44:10.779Z,10.88
2022-11-20T15:46:43.397Z,13.40
2022-11-20T15:49:14.546Z,12.63
2022-11-20T15:51:45.193Z,12.15
2022-11-20T15:54:19.214Z,14.45
2022-11-20T15:56:50.668Z,13.70
2022-11-20T15:59:18.165Z,14.38
2022-11-20T16:01:46.256Z,15.20
2022-11-20T16:04:17.872Z,15.23
2022-11-20T16:06:45.275Z,14.10
2022-11-20T16:09:12.590Z,13.02
2022-11-20T16:11:40.783Z,12.18
2022-11-20T16:14:29.842Z,12.50
2022-11-20T16:16:57.359Z,12.80
2022-11-20T16:19:24.681Z,12.50
2022-11-20T16:21:52.524Z,13.25
2022-11-20T16:24:20.821Z,10.82
2022-11-20T16:26:48.257Z,10.98
2022-11-20T16:29:15.797Z,11.20
2022-11-20T16:31:43.047Z,10.20
2022-11-20T16:34:23.940Z,12.10
2022-11-20T16:36:51.491Z,12.20
2022-11-20T16:39:23.736Z,12.30
2022-11-20T16:41:51.661Z,12.30
2022-11-20T16:44:19.240Z,12.80
2022-11-20T16:46:46.614Z,12.80
2022-11-20T16:49:14.949Z,12.20
2022-11-20T16:51:42.990Z,12.95
2022-11-20T16:54:15.009Z,12.02
2022-11-20T16:56:48.084Z,12.82
2022-11-20T16:59:15.378Z,12.48
2022-11-20T17:01:44.129Z,13.23
2022-11-20T17:04:11.728Z,12.95
2022-11-20T17:06:44.323Z,13.60
2022-11-20T17:09:12.909Z,13.13
2022-11-20T17:11:40.398Z,13.25
2022-11-20T17:14:08.209Z,13.77
2022-11-20T17:16:37.416Z,15.02
2022-11-20T17:19:05.747Z,14.20
2022-11-20T17:21:36.096Z,16.38
2022-11-20T17:24:06.462Z,17.65
2022-11-20T17:26:35.118Z,19.55
2022-11-20T17:29:09.795Z,19.10
2022-11-20T17:31:40.920Z,17.45
2022-11-20T17:34:12.417Z,16.42
2022-11-20T17:36:45.220Z,18.88
2022-11-20T17:39:15.817Z,19.85
2022-11-20T17:41:43.523Z,20.17
2022-11-20T17:44:12.530Z,20.92
2022-11-20T17:46:40.433Z,18.27
2022-11-20T17:49:07.987Z,18.83
2022-11-20T17:51:35.849Z,18.45
2022-11-20T17:54:07.317Z,19.77
2022-11-20T17:56:54.773Z,19.13
2022-11-20T17:59:22.595Z,19.35
2022-11-20T18:01:51.370Z,18.33
2022-11-20T18:04:18.966Z,18.83
2022-11-20T18:06:46.803Z,19.40
2022-11-20T18:09:14.317Z,19.05
2022-11-20T18:11:43.759Z,17.77
2022-11-20T18:14:36.710Z,18.50
2022-11-20T18:17:14.928Z,18.02
2022-11-20T18:20:07.211Z,17.85
2022-11-20T18:22:35.480Z,17.42
2022-11-20T18:25:04.794Z,17.48
2022-11-20T18:27:32.315Z,17.98
2022-11-20T18:29:59.547Z,18.38
2022-11-20T18:32:27.465Z,18.08
2022-11-20T18:34:55.040Z,19.30
2022-11-20T18:37:22.499Z,19.00
2022-11-20T18:39:50.615Z,17.77
2022-11-20T18:42:36.486Z,17.83
2022-11-20T18:45:06.763Z,17.25
2022-11-20T18:47:38.031Z,16.80
2022-11-20T18:50:07.336Z,16.27
2022-11-20T18:52:44.552Z,14.77
2022-11-20T18:55:12.838Z,14.00
2022-11-20T18:57:40.453Z,13.55
2022-11-20T19:00:11.717Z,13.68
2022-11-20T19:02:42.698Z,12.80
2022-11-20T19:05:12.623Z,12.80
2022-11-20T19:07:40.438Z,12.20
2022-11-20T19:10:11.353Z,11.32
2022-11-20T19:12:38.862Z,10.65
2022-11-20T19:15:06.632Z,10.70
2022-11-20T19:17:34.260Z,9.35
2022-11-20T19:20:01.808Z,9.10
2022-11-20T19:22:30.205Z,9.25
2022-11-20T19:24:57.718Z,11.32
2022-11-20T19:27:25.266Z,10.95
2022-11-20T19:29:52.746Z,11.75
2022-11-20T19:32:21.749Z,11.77
2022-11-20T19:34:49.200Z,10.75
2022-11-20T19:37:16.727Z,11.63
2022-11-20T19:39:43.953Z,11.35
2022-11-20T19:42:11.301Z,10.60
2022-11-20T19:44:38.829Z,10.20
2022-11-20T19:47:13.006Z,10.82
2022-11-20T19:49:41.964Z,9.75
2022-11-20T19:52:09.617Z,10.30
2022-11-20T19:54:37.179Z,9.77
2022-11-20T19:57:04.576Z,9.80
2022-11-20T19:59:32.073Z,9.00
2022-11-20T20:01:59.569Z,9.18
2022-11-20T20:04:27.556Z,9.10
2022-11-20T20:06:55.102Z,9.50
2022-11-20T20:09:23.851Z,9.68
2022-11-20T20:11:51.513Z,9.90
2022-11-20T20:14:19.303Z,10.05
2022-11-20T20:16:47.129Z,9.98
2022-11-20T20:19:16.507Z,9.48
2022-11-20T20:21:44.483Z,9.73
2022-11-20T20:24:12.325Z,10.73
2022-11-20T20:26:39.895Z,9.70
2022-11-20T20:29:07.186Z,8.88
2022-11-20T20:31:35.369Z,8.02
2022-11-20T20:34:05.489Z,7.85
2022-11-20T20:36:33.581Z,8.02
2022-11-20T20:39:02.727Z,6.95
2022-11-20T20:41:31.731Z,8.05
2022-11-20T20:44:17.625Z,8.38
2022-11-20T20:46:45.067Z,8.40
2022-11-20T20:49:13.444Z,8.00
2022-11-20T20:51:41.011Z,8.02
2022-11-20T20:54:08.462Z,8.98
2022-11-20T20:56:35.968Z,8.30
2022-11-20T20:59:04.482Z,7.75
2022-11-20T21:01:32.390Z,5.95
2022-11-20T21:04:00.085Z,5.20
2022-11-20T21:06:27.905Z,4.30
2022-11-20T21:08:57.402Z,4.18
2022-11-20T21:11:24.795Z,4.45
2022-11-20T21:13:52.095Z,3.92
2022-11-20T21:16:22.467Z,3.95
2022-11-20T21:18:49.972Z,4.00
2022-11-20T21:21:36.793Z,3.63
2022-11-20T21:24:04.678Z,3.60
2022-11-20T21:26:31.987Z,4.13
2022-11-20T21:28:59.496Z,4.45
2022-11-20T21:31:27.571Z,4.30
2022-11-20T21:33:56.595Z,3.63
2022-11-20T21:36:26.716Z,3.45
2022-11-20T21:38:55.516Z,2.90
2022-11-20T21:41:24.134Z,2.83
2022-11-20T21:44:23.545Z,3.03
2022-11-20T21:46:41.846Z,2.80
2022-11-20T21:49:10.255Z,2.90
2022-11-20T21:51:37.866Z,2.88
2022-11-20T21:54:05.287Z,2.80
2022-11-20T21:56:32.969Z,2.90
2022-11-20T21:59:00.621Z,2.80
2022-11-20T22:01:30.139Z,3.13
2022-11-20T22:04:02.716Z,2.92
2022-11-20T22:06:32.876Z,2.88
2022-11-20T22:09:01.527Z,2.63
2022-11-20T22:11:28.809Z,2.50
2022-11-20T22:14:14.555Z,3.13
2022-11-20T22:16:42.108Z,2.63
2022-11-20T22:19:09.459Z,2.70
2022-11-20T22:21:39.549Z,2.60
2022-11-20T22:24:06.923Z,2.63
2022-11-20T22:26:40.137Z,2.60
2022-11-20T22:29:08.944Z,2.92
2022-11-20T22:31:36.688Z,2.90
2022-11-20T22:34:04.197Z,2.50
2022-11-20T22:36:32.290Z,2.65
2022-11-20T22:39:03.305Z,2.83
2022-11-20T22:41:31.361Z,2.80
2022-11-20T22:44:04.176Z,2.92
2022-11-20T22:46:34.177Z,2.42
2022-11-20T22:49:04.467Z,3.00
2022-11-20T22:51:35.804Z,2.60
2022-11-20T22:54:04.186Z,3.10
2022-11-20T22:56:31.624Z,2.65
2022-11-20T22:58:59.074Z,2.88
2022-11-20T23:01:28.602Z,2.80
2022-11-20T23:04:01.320Z,2.67
2022-11-20T23:06:29.522Z,3.00
2022-11-20T23:08:57.092Z,2.80
2022-11-20T23:11:28.694Z,2.70
2022-11-20T23:14:16.127Z,2.97
2022-11-20T23:16:43.642Z,2.47
2022-11-20T23:19:14.331Z,2.65
2022-11-20T23:21:43.064Z,2.83
2022-11-20T23:24:11.324Z,2.90
2022-11-20T23:26:40.235Z,2.95
2022-11-20T23:29:07.773Z,2.70
2022-11-20T23:31:36.245Z,2.83
2022-11-20T23:34:04.208Z,2.70
2022-11-20T23:36:31.560Z,2.60
2022-11-20T23:38:58.795Z,2.42
2022-11-20T23:41:26.222Z,2.50
2022-11-20T23:43:54.038Z,2.38
2022-11-20T23:46:21.668Z,2.53
2022-11-20T23:48:49.168Z,3.35
2022-11-20T23:51:17.649Z,2.55
2022-11-20T23:53:45.043Z,2.55
2022-11-20T23:56:14.833Z,2.20
2022-11-20T23:58:42.487Z,2.50
